sensor_id;sensor_type;location;lat;lon;timestamp;temperature;humidity
5930;DHT22;2990;48.746;9.236;2023-06-01T00:00:04;17.70;95.10
5930;DHT22;2990;48.746;9.236;2023-06-01T00:02:37;17.50;95.30
5930;DHT22;2990;48.746;9.236;2023-06-01T00:05:03;17.40;97.20
5930;DHT22;2990;48.746;9.236;2023-06-01T00:07:29;17.30;97.90
5930;DHT22;2990;48.746;9.236;2023-06-01T00:09:55;17.20;98.70
5930;DHT22;2990;48.746;9.236;2023-06-01T00:12:23;17.10;99.00
5930;DHT22;2990;48.746;9.236;2023-06-01T00:14:49;17.10;99.40
5930;DHT22;2990;48.746;9.236;2023-06-01T00:17:15;17.00;99.90
5930;DHT22;2990;48.746;9.236;2023-06-01T00:19:41;17.00;99.20
5930;DHT22;2990;48.746;9.236;2023-06-01T00:22:15;16.90;99.30
5930;DHT22;2990;48.746;9.236;2023-06-01T00:24:44;16.90;99.90
5930;DHT22;2990;48.746;9.236;2023-06-01T00:27:18;16.80;99.90
5930;DHT22;2990;48.746;9.236;2023-06-01T00:29:50;16.70;99.90
5930;DHT22;2990;48.746;9.236;2023-06-01T00:32:21;16.60;99.90
5930;DHT22;2990;48.746;9.236;2023-06-01T00:34:52;16.60;99.90
5930;DHT22;2990;48.746;9.236;2023-06-01T00:37:18;16.40;99.90
5930;DHT22;2990;48.746;9.236;2023-06-01T00:39:46;16.60;99.90
5930;DHT22;2990;48.746;9.236;2023-06-01T00:42:17;16.40;99.90
5930;DHT22;2990;48.746;9.236;2023-06-01T00:44:46;16.40;99.90
5930;DHT22;2990;48.746;9.236;2023-06-01T00:47:20;16.20;99.90
5930;DHT22;2990;48.746;9.236;2023-06-01T00:49:56;16.20;99.90
5930;DHT22;2990;48.746;9.236;2023-06-01T00:52:27;16.10;99.90
5930;DHT22;2990;48.746;9.236;2023-06-01T00:54:59;16.10;99.90
5930;DHT22;2990;48.746;9.236;2023-06-01T00:57:29;16.10;99.90
5930;DHT22;2990;48.746;9.236;2023-06-01T01:00:00;16.10;99.90
5930;DHT22;2990;48.746;9.236;2023-06-01T01:02:29;16.00;99.90
5930;DHT22;2990;48.746;9.236;2023-06-01T01:04:57;16.00;99.90
5930;DHT22;2990;48.746;9.236;2023-06-01T01:07:27;16.10;99.90
5930;DHT22;2990;48.746;9.236;2023-06-01T01:10:36;15.90;99.90
5930;DHT22;2990;48.746;9.236;2023-06-01T01:13:20;15.90;99.90
5930;DHT22;2990;48.746;9.236;2023-06-01T01:18:57;15.80;99.90
5930;DHT22;2990;48.746;9.236;2023-06-01T01:21:30;15.80;99.90
5930;DHT22;2990;48.746;9.236;2023-06-01T01:24:35;15.80;99.90
5930;DHT22;2990;48.746;9.236;2023-06-01T01:27:45;15.80;99.90
5930;DHT22;2990;48.746;9.236;2023-06-01T01:30:21;15.70;99.90
5930;DHT22;2990;48.746;9.236;2023-06-01T01:32:49;15.70;99.90
5930;DHT22;2990;48.746;9.236;2023-06-01T01:35:16;15.70;99.90
5930;DHT22;2990;48.746;9.236;2023-06-01T01:37:55;15.60;99.90
5930;DHT22;2990;48.746;9.236;2023-06-01T01:40:26;15.50;99.90
5930;DHT22;2990;48.746;9.236;2023-06-01T01:42:52;15.60;99.90
5930;DHT22;2990;48.746;9.236;2023-06-01T01:45:19;15.50;99.90
5930;DHT22;2990;48.746;9.236;2023-06-01T01:47:49;15.50;99.90
5930;DHT22;2990;48.746;9.236;2023-06-01T01:50:18;15.40;99.90
5930;DHT22;2990;48.746;9.236;2023-06-01T01:52:47;15.40;99.90
5930;DHT22;2990;48.746;9.236;2023-06-01T01:55:14;15.30;99.90
5930;DHT22;2990;48.746;9.236;2023-06-01T01:57:46;15.30;99.90
5930;DHT22;2990;48.746;9.236;2023-06-01T02:00:16;15.30;99.90
5930;DHT22;2990;48.746;9.236;2023-06-01T02:02:45;15.30;99.90
5930;DHT22;2990;48.746;9.236;2023-06-01T02:05:11;15.30;99.90
5930;DHT22;2990;48.746;9.236;2023-06-01T02:07:36;15.30;99.90
5930;DHT22;2990;48.746;9.236;2023-06-01T02:10:02;15.30;99.90
5930;DHT22;2990;48.746;9.236;2023-06-01T02:12:28;15.20;99.90
5930;DHT22;2990;48.746;9.236;2023-06-01T02:14:53;15.20;99.90
5930;DHT22;2990;48.746;9.236;2023-06-01T02:17:19;15.10;99.90
5930;DHT22;2990;48.746;9.236;2023-06-01T02:19:47;15.20;99.90
5930;DHT22;2990;48.746;9.236;2023-06-01T02:22:13;15.10;99.90
5930;DHT22;2990;48.746;9.236;2023-06-01T02:24:42;15.10;99.90
5930;DHT22;2990;48.746;9.236;2023-06-01T02:27:07;15.00;99.90
5930;DHT22;2990;48.746;9.236;2023-06-01T02:29:35;15.00;99.90
5930;DHT22;2990;48.746;9.236;2023-06-01T02:32:01;15.00;99.90
5930;DHT22;2990;48.746;9.236;2023-06-01T02:34:30;14.90;99.90
5930;DHT22;2990;48.746;9.236;2023-06-01T02:36:56;14.90;99.90
5930;DHT22;2990;48.746;9.236;2023-06-01T02:39:22;14.90;99.90
5930;DHT22;2990;48.746;9.236;2023-06-01T02:41:51;14.80;99.90
5930;DHT22;2990;48.746;9.236;2023-06-01T02:44:17;14.80;99.90
5930;DHT22;2990;48.746;9.236;2023-06-01T02:46:42;14.80;99.90
5930;DHT22;2990;48.746;9.236;2023-06-01T02:49:08;14.70;99.90
5930;DHT22;2990;48.746;9.236;2023-06-01T02:51:37;14.90;99.90
5930;DHT22;2990;48.746;9.236;2023-06-01T02:54:02;14.60;99.90
5930;DHT22;2990;48.746;9.236;2023-06-01T02:56:28;14.60;99.90
5930;DHT22;2990;48.746;9.236;2023-06-01T02:58:56;14.60;99.90
5930;DHT22;2990;48.746;9.236;2023-06-01T03:01:27;14.60;99.90
5930;DHT22;2990;48.746;9.236;2023-06-01T03:04:05;14.50;99.90
5930;DHT22;2990;48.746;9.236;2023-06-01T03:06:33;14.50;99.90
5930;DHT22;2990;48.746;9.236;2023-06-01T03:09:03;14.40;99.90
5930;DHT22;2990;48.746;9.236;2023-06-01T03:11:32;14.30;99.90
5930;DHT22;2990;48.746;9.236;2023-06-01T03:14:00;14.20;99.90
5930;DHT22;2990;48.746;9.236;2023-06-01T03:16:29;14.30;99.90
5930;DHT22;2990;48.746;9.236;2023-06-01T03:18:55;14.30;99.90
5930;DHT22;2990;48.746;9.236;2023-06-01T03:21:21;14.30;99.90
5930;DHT22;2990;48.746;9.236;2023-06-01T03:23:51;14.40;99.90
5930;DHT22;2990;48.746;9.236;2023-06-01T03:26:23;14.30;99.90
5930;DHT22;2990;48.746;9.236;2023-06-01T03:28:50;14.30;99.90
5930;DHT22;2990;48.746;9.236;2023-06-01T03:31:24;14.20;99.90
5930;DHT22;2990;48.746;9.236;2023-06-01T03:33:50;14.30;99.90
5930;DHT22;2990;48.746;9.236;2023-06-01T03:36:18;14.20;99.90
5930;DHT22;2990;48.746;9.236;2023-06-01T03:38:47;14.20;99.90
5930;DHT22;2990;48.746;9.236;2023-06-01T03:41:15;14.20;99.90
5930;DHT22;2990;48.746;9.236;2023-06-01T03:43:41;14.20;99.90
5930;DHT22;2990;48.746;9.236;2023-06-01T03:46:10;14.40;99.90
5930;DHT22;2990;48.746;9.236;2023-06-01T03:48:44;14.20;99.90
5930;DHT22;2990;48.746;9.236;2023-06-01T03:51:10;14.20;99.90
5930;DHT22;2990;48.746;9.236;2023-06-01T03:53:38;14.00;99.90
5930;DHT22;2990;48.746;9.236;2023-06-01T03:56:06;14.10;99.90
5930;DHT22;2990;48.746;9.236;2023-06-01T03:58:32;14.10;99.90
5930;DHT22;2990;48.746;9.236;2023-06-01T04:00:58;14.10;99.90
5930;DHT22;2990;48.746;9.236;2023-06-01T04:03:31;14.10;99.90
5930;DHT22;2990;48.746;9.236;2023-06-01T04:06:05;14.00;99.90
5930;DHT22;2990;48.746;9.236;2023-06-01T04:08:44;14.10;99.90
5930;DHT22;2990;48.746;9.236;2023-06-01T04:14:52;14.00;99.90
5930;DHT22;2990;48.746;9.236;2023-06-01T04:17:29;14.20;99.90
5930;DHT22;2990;48.746;9.236;2023-06-01T04:19:54;14.20;99.90
5930;DHT22;2990;48.746;9.236;2023-06-01T04:26:12;14.20;99.90
5930;DHT22;2990;48.746;9.236;2023-06-01T04:28:38;14.30;99.90
5930;DHT22;2990;48.746;9.236;2023-06-01T04:31:26;14.50;99.90
5930;DHT22;2990;48.746;9.236;2023-06-01T04:34:00;14.50;99.90
5930;DHT22;2990;48.746;9.236;2023-06-01T04:36:48;14.60;99.90
5930;DHT22;2990;48.746;9.236;2023-06-01T04:39:27;14.70;99.90
5930;DHT22;2990;48.746;9.236;2023-06-01T04:42:06;14.80;99.90
5930;DHT22;2990;48.746;9.236;2023-06-01T04:44:41;14.90;99.90
5930;DHT22;2990;48.746;9.236;2023-06-01T04:47:20;15.00;99.90
5930;DHT22;2990;48.746;9.236;2023-06-01T04:53:32;15.10;99.90
5930;DHT22;2990;48.746;9.236;2023-06-01T04:56:09;15.20;99.90
5930;DHT22;2990;48.746;9.236;2023-06-01T04:58:40;15.30;99.90
5930;DHT22;2990;48.746;9.236;2023-06-01T05:01:10;15.40;99.90
5930;DHT22;2990;48.746;9.236;2023-06-01T05:03:45;15.50;99.90
5930;DHT22;2990;48.746;9.236;2023-06-01T05:09:16;15.70;99.90
5930;DHT22;2990;48.746;9.236;2023-06-01T05:12:06;15.80;99.90
5930;DHT22;2990;48.746;9.236;2023-06-01T05:14:35;15.90;99.90
5930;DHT22;2990;48.746;9.236;2023-06-01T05:17:15;16.00;99.90
5930;DHT22;2990;48.746;9.236;2023-06-01T05:19:46;16.20;99.90
5930;DHT22;2990;48.746;9.236;2023-06-01T05:22:26;16.30;99.90
5930;DHT22;2990;48.746;9.236;2023-06-01T05:25:06;16.30;99.90
5930;DHT22;2990;48.746;9.236;2023-06-01T05:28:28;16.40;99.90
5930;DHT22;2990;48.746;9.236;2023-06-01T05:31:18;16.50;99.90
5930;DHT22;2990;48.746;9.236;2023-06-01T05:33:47;16.60;99.90
5930;DHT22;2990;48.746;9.236;2023-06-01T05:36:23;16.60;99.90
5930;DHT22;2990;48.746;9.236;2023-06-01T05:39:10;16.60;99.90
5930;DHT22;2990;48.746;9.236;2023-06-01T05:41:41;16.80;99.90
5930;DHT22;2990;48.746;9.236;2023-06-01T05:44:12;16.80;99.90
5930;DHT22;2990;48.746;9.236;2023-06-01T05:46:50;16.80;99.90
5930;DHT22;2990;48.746;9.236;2023-06-01T05:49:30;16.90;99.90
5930;DHT22;2990;48.746;9.236;2023-06-01T05:52:00;16.90;99.90
5930;DHT22;2990;48.746;9.236;2023-06-01T05:54:41;16.80;99.90
5930;DHT22;2990;48.746;9.236;2023-06-01T05:57:10;16.90;99.90
5930;DHT22;2990;48.746;9.236;2023-06-01T05:59:40;16.80;99.90
5930;DHT22;2990;48.746;9.236;2023-06-01T06:02:11;17.10;99.90
5930;DHT22;2990;48.746;9.236;2023-06-01T06:04:45;17.10;99.90
5930;DHT22;2990;48.746;9.236;2023-06-01T06:07:27;17.10;99.90
5930;DHT22;2990;48.746;9.236;2023-06-01T06:09:56;17.10;99.90
5930;DHT22;2990;48.746;9.236;2023-06-01T06:12:29;17.00;99.90
5930;DHT22;2990;48.746;9.236;2023-06-01T06:57:15;18.80;99.90
5930;DHT22;2990;48.746;9.236;2023-06-01T06:59:45;18.90;99.90
5930;DHT22;2990;48.746;9.236;2023-06-01T07:02:21;18.90;99.90
5930;DHT22;2990;48.746;9.236;2023-06-01T07:04:52;19.10;99.00
5930;DHT22;2990;48.746;9.236;2023-06-01T07:07:41;19.40;98.70
5930;DHT22;2990;48.746;9.236;2023-06-01T07:10:26;19.40;97.30
5930;DHT22;2990;48.746;9.236;2023-06-01T07:13:03;19.40;91.30
5930;DHT22;2990;48.746;9.236;2023-06-01T07:16:03;19.40;94.60
5930;DHT22;2990;48.746;9.236;2023-06-01T07:18:44;19.40;99.90
5930;DHT22;2990;48.746;9.236;2023-06-01T07:21:47;19.60;76.30
5930;DHT22;2990;48.746;9.236;2023-06-01T07:30:42;19.80;91.10
5930;DHT22;2990;48.746;9.236;2023-06-01T07:33:21;19.60;85.50
5930;DHT22;2990;48.746;9.236;2023-06-01T07:36:10;19.80;75.70
5930;DHT22;2990;48.746;9.236;2023-06-01T07:38:52;20.00;93.00
5930;DHT22;2990;48.746;9.236;2023-06-01T07:41:27;20.10;93.00
5930;DHT22;2990;48.746;9.236;2023-06-01T07:44:07;20.30;86.20
5930;DHT22;2990;48.746;9.236;2023-06-01T07:46:36;20.50;88.80
5930;DHT22;2990;48.746;9.236;2023-06-01T07:49:20;20.80;59.40
5930;DHT22;2990;48.746;9.236;2023-06-01T07:51:49;20.70;73.10
5930;DHT22;2990;48.746;9.236;2023-06-01T07:54:23;20.60;64.30
5930;DHT22;2990;48.746;9.236;2023-06-01T07:56:54;20.80;57.00
5930;DHT22;2990;48.746;9.236;2023-06-01T07:59:23;20.80;48.80
5930;DHT22;2990;48.746;9.236;2023-06-01T08:02:07;20.80;56.20
5930;DHT22;2990;48.746;9.236;2023-06-01T08:04:36;21.10;51.70
5930;DHT22;2990;48.746;9.236;2023-06-01T08:07:07;21.00;53.60
5930;DHT22;2990;48.746;9.236;2023-06-01T08:09:33;20.90;45.30
5930;DHT22;2990;48.746;9.236;2023-06-01T08:12:03;21.00;46.50
5930;DHT22;2990;48.746;9.236;2023-06-01T08:14:29;21.00;65.80
5930;DHT22;2990;48.746;9.236;2023-06-01T08:17:06;21.20;58.50
5930;DHT22;2990;48.746;9.236;2023-06-01T08:19:45;21.40;23.20
5930;DHT22;2990;48.746;9.236;2023-06-01T08:22:16;21.50;1.20
5930;DHT22;2990;48.746;9.236;2023-06-01T08:24:48;21.70;9.80
5930;DHT22;2990;48.746;9.236;2023-06-01T08:27:22;21.60;1.00
5930;DHT22;2990;48.746;9.236;2023-06-01T08:29:49;21.70;1.00
5930;DHT22;2990;48.746;9.236;2023-06-01T08:32:18;21.90;1.00
5930;DHT22;2990;48.746;9.236;2023-06-01T08:34:55;22.00;1.00
5930;DHT22;2990;48.746;9.236;2023-06-01T08:37:41;22.20;1.00
5930;DHT22;2990;48.746;9.236;2023-06-01T08:40:07;22.40;1.00
5930;DHT22;2990;48.746;9.236;2023-06-01T08:42:58;22.50;1.00
5930;DHT22;2990;48.746;9.236;2023-06-01T08:45:25;22.60;1.00
5930;DHT22;2990;48.746;9.236;2023-06-01T08:47:55;22.40;1.00
5930;DHT22;2990;48.746;9.236;2023-06-01T08:50:23;22.60;1.00
5930;DHT22;2990;48.746;9.236;2023-06-01T08:52:56;22.70;1.00
5930;DHT22;2990;48.746;9.236;2023-06-01T08:55:26;22.60;1.00
5930;DHT22;2990;48.746;9.236;2023-06-01T08:58:12;22.80;1.00
5930;DHT22;2990;48.746;9.236;2023-06-01T09:00:40;23.00;1.00
5930;DHT22;2990;48.746;9.236;2023-06-01T09:03:11;23.00;1.00
5930;DHT22;2990;48.746;9.236;2023-06-01T09:05:59;22.90;1.00
5930;DHT22;2990;48.746;9.236;2023-06-01T09:08:29;23.10;1.00
5930;DHT22;2990;48.746;9.236;2023-06-01T09:10:55;23.20;1.00
5930;DHT22;2990;48.746;9.236;2023-06-01T09:13:31;23.30;1.00
5930;DHT22;2990;48.746;9.236;2023-06-01T09:15:57;23.30;1.00
5930;DHT22;2990;48.746;9.236;2023-06-01T09:18:23;23.60;1.00
5930;DHT22;2990;48.746;9.236;2023-06-01T09:20:48;23.20;1.00
5930;DHT22;2990;48.746;9.236;2023-06-01T09:23:25;23.50;1.00
5930;DHT22;2990;48.746;9.236;2023-06-01T09:28:59;23.80;1.00
5930;DHT22;2990;48.746;9.236;2023-06-01T09:31:47;23.90;1.00
5930;DHT22;2990;48.746;9.236;2023-06-01T09:34:15;23.80;1.00
5930;DHT22;2990;48.746;9.236;2023-06-01T09:36:43;23.90;1.00
5930;DHT22;2990;48.746;9.236;2023-06-01T09:39:14;24.00;1.00
5930;DHT22;2990;48.746;9.236;2023-06-01T09:41:51;24.20;1.00
5930;DHT22;2990;48.746;9.236;2023-06-01T09:44:24;24.30;1.00
5930;DHT22;2990;48.746;9.236;2023-06-01T09:46:55;24.20;1.00
5930;DHT22;2990;48.746;9.236;2023-06-01T09:49:27;24.30;1.00
5930;DHT22;2990;48.746;9.236;2023-06-01T09:52:09;24.50;1.00
5930;DHT22;2990;48.746;9.236;2023-06-01T09:54:51;24.50;1.00
5930;DHT22;2990;48.746;9.236;2023-06-01T09:57:25;24.60;1.00
5930;DHT22;2990;48.746;9.236;2023-06-01T09:59:51;24.80;1.00
5930;DHT22;2990;48.746;9.236;2023-06-01T10:02:22;24.90;1.00
5930;DHT22;2990;48.746;9.236;2023-06-01T10:04:50;24.70;1.00
5930;DHT22;2990;48.746;9.236;2023-06-01T10:07:17;24.90;1.00
5930;DHT22;2990;48.746;9.236;2023-06-01T10:09:53;25.00;1.00
5930;DHT22;2990;48.746;9.236;2023-06-01T10:12:28;25.20;1.00
5930;DHT22;2990;48.746;9.236;2023-06-01T10:14:55;25.10;1.00
5930;DHT22;2990;48.746;9.236;2023-06-01T10:17:21;25.30;1.00
5930;DHT22;2990;48.746;9.236;2023-06-01T10:19:50;25.40;1.00
5930;DHT22;2990;48.746;9.236;2023-06-01T10:22:22;25.40;1.00
5930;DHT22;2990;48.746;9.236;2023-06-01T10:24:55;25.60;1.00
5930;DHT22;2990;48.746;9.236;2023-06-01T10:27:35;25.80;1.00
5930;DHT22;2990;48.746;9.236;2023-06-01T10:30:10;26.00;1.00
5930;DHT22;2990;48.746;9.236;2023-06-01T10:32:50;26.10;1.00
5930;DHT22;2990;48.746;9.236;2023-06-01T10:40:44;26.20;1.00
5930;DHT22;2990;48.746;9.236;2023-06-01T10:48:57;26.00;1.00
5930;DHT22;2990;48.746;9.236;2023-06-01T10:51:23;26.00;1.00
5930;DHT22;2990;48.746;9.236;2023-06-01T10:53:53;26.00;1.00
5930;DHT22;2990;48.746;9.236;2023-06-01T10:56:24;25.90;1.00
5930;DHT22;2990;48.746;9.236;2023-06-01T10:59:11;25.80;1.00
5930;DHT22;2990;48.746;9.236;2023-06-01T11:01:44;26.00;1.00
5930;DHT22;2990;48.746;9.236;2023-06-01T11:04:12;26.00;1.00
5930;DHT22;2990;48.746;9.236;2023-06-01T11:06:44;26.00;1.00
5930;DHT22;2990;48.746;9.236;2023-06-01T11:09:13;25.90;1.00
5930;DHT22;2990;48.746;9.236;2023-06-01T11:14:28;25.80;1.00
5930;DHT22;2990;48.746;9.236;2023-06-01T11:17:26;25.80;1.00
5930;DHT22;2990;48.746;9.236;2023-06-01T11:20:02;26.00;1.00
5930;DHT22;2990;48.746;9.236;2023-06-01T11:22:39;26.00;1.00
5930;DHT22;2990;48.746;9.236;2023-06-01T11:25:06;26.30;1.00
5930;DHT22;2990;48.746;9.236;2023-06-01T11:27:33;26.30;1.00
5930;DHT22;2990;48.746;9.236;2023-06-01T11:30:02;26.30;1.00
5930;DHT22;2990;48.746;9.236;2023-06-01T11:32:33;26.40;1.00
5930;DHT22;2990;48.746;9.236;2023-06-01T11:35:18;26.60;1.00
5930;DHT22;2990;48.746;9.236;2023-06-01T11:37:55;26.30;1.00
5930;DHT22;2990;48.746;9.236;2023-06-01T11:40:21;26.40;1.00
5930;DHT22;2990;48.746;9.236;2023-06-01T11:42:50;26.50;1.00
5930;DHT22;2990;48.746;9.236;2023-06-01T11:45:17;26.50;1.00
5930;DHT22;2990;48.746;9.236;2023-06-01T11:47:45;26.70;1.00
5930;DHT22;2990;48.746;9.236;2023-06-01T11:50:24;26.90;1.00
5930;DHT22;2990;48.746;9.236;2023-06-01T11:52:50;26.90;1.00
5930;DHT22;2990;48.746;9.236;2023-06-01T11:55:19;26.70;1.00
5930;DHT22;2990;48.746;9.236;2023-06-01T11:57:45;26.70;1.00
5930;DHT22;2990;48.746;9.236;2023-06-01T12:00:11;27.00;1.00
5930;DHT22;2990;48.746;9.236;2023-06-01T12:02:38;26.70;1.00
5930;DHT22;2990;48.746;9.236;2023-06-01T12:05:07;26.80;1.00
5930;DHT22;2990;48.746;9.236;2023-06-01T12:07:49;26.80;1.00
5930;DHT22;2990;48.746;9.236;2023-06-01T12:10:22;27.20;1.00
5930;DHT22;2990;48.746;9.236;2023-06-01T12:12:48;27.20;1.00
5930;DHT22;2990;48.746;9.236;2023-06-01T12:15:14;27.20;1.00
5930;DHT22;2990;48.746;9.236;2023-06-01T12:17:47;27.20;1.00
5930;DHT22;2990;48.746;9.236;2023-06-01T12:22:50;27.60;1.00
5930;DHT22;2990;48.746;9.236;2023-06-01T12:25:16;27.60;1.00
5930;DHT22;2990;48.746;9.236;2023-06-01T12:27:42;27.70;1.00
5930;DHT22;2990;48.746;9.236;2023-06-01T12:30:20;27.40;1.00
5930;DHT22;2990;48.746;9.236;2023-06-01T12:32:45;27.30;1.00
5930;DHT22;2990;48.746;9.236;2023-06-01T12:35:11;27.20;1.00
5930;DHT22;2990;48.746;9.236;2023-06-01T12:37:36;26.90;1.00
5930;DHT22;2990;48.746;9.236;2023-06-01T12:40:02;26.90;1.00
5930;DHT22;2990;48.746;9.236;2023-06-01T12:42:39;26.70;1.00
5930;DHT22;2990;48.746;9.236;2023-06-01T12:45:08;27.00;1.00
5930;DHT22;2990;48.746;9.236;2023-06-01T12:47:41;27.30;1.00
5930;DHT22;2990;48.746;9.236;2023-06-01T12:50:08;26.80;1.00
5930;DHT22;2990;48.746;9.236;2023-06-01T12:52:35;26.50;1.00
5930;DHT22;2990;48.746;9.236;2023-06-01T12:55:01;26.80;1.00
5930;DHT22;2990;48.746;9.236;2023-06-01T12:57:29;27.00;1.00
5930;DHT22;2990;48.746;9.236;2023-06-01T12:59:55;27.20;1.00
5930;DHT22;2990;48.746;9.236;2023-06-01T13:02:21;27.40;1.00
5930;DHT22;2990;48.746;9.236;2023-06-01T13:04:46;27.50;1.00
5930;DHT22;2990;48.746;9.236;2023-06-01T13:07:12;27.50;1.00
5930;DHT22;2990;48.746;9.236;2023-06-01T13:09:37;27.60;1.00
5930;DHT22;2990;48.746;9.236;2023-06-01T13:12:03;27.50;1.00
5930;DHT22;2990;48.746;9.236;2023-06-01T13:14:29;27.50;1.00
5930;DHT22;2990;48.746;9.236;2023-06-01T13:16:55;27.40;1.00
5930;DHT22;2990;48.746;9.236;2023-06-01T13:19:21;27.20;1.00
5930;DHT22;2990;48.746;9.236;2023-06-01T13:21:47;27.40;1.00
5930;DHT22;2990;48.746;9.236;2023-06-01T13:24:12;27.40;1.00
5930;DHT22;2990;48.746;9.236;2023-06-01T13:26:38;27.50;1.00
5930;DHT22;2990;48.746;9.236;2023-06-01T13:29:07;27.50;1.00
5930;DHT22;2990;48.746;9.236;2023-06-01T13:31:33;27.60;1.00
5930;DHT22;2990;48.746;9.236;2023-06-01T13:34:00;27.60;1.00
5930;DHT22;2990;48.746;9.236;2023-06-01T13:36:26;27.60;1.00
5930;DHT22;2990;48.746;9.236;2023-06-01T13:38:57;27.40;1.00
5930;DHT22;2990;48.746;9.236;2023-06-01T13:41:23;27.30;1.00
5930;DHT22;2990;48.746;9.236;2023-06-01T13:43:48;27.30;1.00
5930;DHT22;2990;48.746;9.236;2023-06-01T13:46:19;27.10;1.00
5930;DHT22;2990;48.746;9.236;2023-06-01T13:48:45;27.20;1.00
5930;DHT22;2990;48.746;9.236;2023-06-01T13:51:20;27.00;1.00
5930;DHT22;2990;48.746;9.236;2023-06-01T13:53:48;27.40;1.00
5930;DHT22;2990;48.746;9.236;2023-06-01T13:56:21;27.50;1.00
5930;DHT22;2990;48.746;9.236;2023-06-01T14:01:43;27.90;1.00
5930;DHT22;2990;48.746;9.236;2023-06-01T14:04:08;27.70;1.00
5930;DHT22;2990;48.746;9.236;2023-06-01T14:06:34;27.70;1.00
5930;DHT22;2990;48.746;9.236;2023-06-01T14:09:00;27.70;1.00
5930;DHT22;2990;48.746;9.236;2023-06-01T14:11:28;27.40;1.00
5930;DHT22;2990;48.746;9.236;2023-06-01T14:13:54;27.50;1.00
5930;DHT22;2990;48.746;9.236;2023-06-01T14:16:19;27.20;1.00
5930;DHT22;2990;48.746;9.236;2023-06-01T14:18:48;27.30;1.00
5930;DHT22;2990;48.746;9.236;2023-06-01T14:21:17;27.10;1.00
5930;DHT22;2990;48.746;9.236;2023-06-01T14:23:43;27.10;1.00
5930;DHT22;2990;48.746;9.236;2023-06-01T14:26:11;27.00;1.00
5930;DHT22;2990;48.746;9.236;2023-06-01T14:28:37;26.90;1.00
5930;DHT22;2990;48.746;9.236;2023-06-01T14:31:02;26.80;1.00
5930;DHT22;2990;48.746;9.236;2023-06-01T14:33:28;27.00;1.00
5930;DHT22;2990;48.746;9.236;2023-06-01T14:35:54;27.00;1.00
5930;DHT22;2990;48.746;9.236;2023-06-01T14:38:19;27.10;1.00
5930;DHT22;2990;48.746;9.236;2023-06-01T14:40:48;27.00;1.00
5930;DHT22;2990;48.746;9.236;2023-06-01T14:43:19;26.80;1.00
5930;DHT22;2990;48.746;9.236;2023-06-01T14:45:45;26.80;1.00
5930;DHT22;2990;48.746;9.236;2023-06-01T14:48:11;27.00;1.00
5930;DHT22;2990;48.746;9.236;2023-06-01T14:50:39;27.20;1.00
5930;DHT22;2990;48.746;9.236;2023-06-01T14:53:05;27.10;1.00
5930;DHT22;2990;48.746;9.236;2023-06-01T14:55:32;27.10;1.00
5930;DHT22;2990;48.746;9.236;2023-06-01T14:58:08;26.70;1.00
5930;DHT22;2990;48.746;9.236;2023-06-01T15:00:34;26.90;1.00
5930;DHT22;2990;48.746;9.236;2023-06-01T15:03:10;27.00;1.00
5930;DHT22;2990;48.746;9.236;2023-06-01T15:05:36;26.90;1.00
5930;DHT22;2990;48.746;9.236;2023-06-01T15:08:11;26.90;1.00
5930;DHT22;2990;48.746;9.236;2023-06-01T15:10:36;26.90;1.00
5930;DHT22;2990;48.746;9.236;2023-06-01T15:13:02;26.90;1.00
5930;DHT22;2990;48.746;9.236;2023-06-01T15:15:28;27.00;1.00
5930;DHT22;2990;48.746;9.236;2023-06-01T15:17:54;27.10;1.00
5930;DHT22;2990;48.746;9.236;2023-06-01T15:20:22;27.30;1.00
5930;DHT22;2990;48.746;9.236;2023-06-01T15:22:50;27.30;1.00
5930;DHT22;2990;48.746;9.236;2023-06-01T15:25:16;27.20;1.00
5930;DHT22;2990;48.746;9.236;2023-06-01T15:27:55;27.30;1.00
5930;DHT22;2990;48.746;9.236;2023-06-01T15:30:20;27.30;1.00
5930;DHT22;2990;48.746;9.236;2023-06-01T15:35:59;28.60;1.00
5930;DHT22;2990;48.746;9.236;2023-06-01T15:38:43;28.80;1.00
5930;DHT22;2990;48.746;9.236;2023-06-01T15:44:03;28.20;1.00
5930;DHT22;2990;48.746;9.236;2023-06-01T15:46:31;27.90;1.00
5930;DHT22;2990;48.746;9.236;2023-06-01T15:49:05;28.10;1.00
5930;DHT22;2990;48.746;9.236;2023-06-01T15:51:31;28.30;1.00
5930;DHT22;2990;48.746;9.236;2023-06-01T15:54:00;28.10;1.00
5930;DHT22;2990;48.746;9.236;2023-06-01T15:56:32;27.70;1.00
5930;DHT22;2990;48.746;9.236;2023-06-01T15:58:57;27.50;1.00
5930;DHT22;2990;48.746;9.236;2023-06-01T16:04:36;27.10;1.00
5930;DHT22;2990;48.746;9.236;2023-06-01T16:13:59;27.30;1.00
5930;DHT22;2990;48.746;9.236;2023-06-01T16:16:25;27.60;1.00
5930;DHT22;2990;48.746;9.236;2023-06-01T16:19:03;27.80;1.00
5930;DHT22;2990;48.746;9.236;2023-06-01T16:21:44;28.60;1.00
5930;DHT22;2990;48.746;9.236;2023-06-01T16:26:50;27.70;1.00
5930;DHT22;2990;48.746;9.236;2023-06-01T16:29:31;27.30;1.00
5930;DHT22;2990;48.746;9.236;2023-06-01T16:35:13;26.40;1.00
5930;DHT22;2990;48.746;9.236;2023-06-01T16:37:54;26.20;1.00
5930;DHT22;2990;48.746;9.236;2023-06-01T16:40:20;25.90;1.00
5930;DHT22;2990;48.746;9.236;2023-06-01T16:42:58;25.80;1.00
5930;DHT22;2990;48.746;9.236;2023-06-01T16:45:59;25.60;1.00
5930;DHT22;2990;48.746;9.236;2023-06-01T16:48:24;25.50;1.00
5930;DHT22;2990;48.746;9.236;2023-06-01T16:54:46;25.60;1.00
5930;DHT22;2990;48.746;9.236;2023-06-01T16:57:12;25.50;1.00
5930;DHT22;2990;48.746;9.236;2023-06-01T16:59:51;25.40;1.00
5930;DHT22;2990;48.746;9.236;2023-06-01T17:05:30;25.40;1.00
5930;DHT22;2990;48.746;9.236;2023-06-01T17:10:45;25.30;1.00
5930;DHT22;2990;48.746;9.236;2023-06-01T17:16:23;25.20;1.00
5930;DHT22;2990;48.746;9.236;2023-06-01T17:19:01;25.20;1.00
5930;DHT22;2990;48.746;9.236;2023-06-01T17:24:05;24.90;1.00
5930;DHT22;2990;48.746;9.236;2023-06-01T17:26:43;25.00;1.00
5930;DHT22;2990;48.746;9.236;2023-06-01T17:29:09;24.90;1.00
5930;DHT22;2990;48.746;9.236;2023-06-01T17:31:46;24.90;1.00
5930;DHT22;2990;48.746;9.236;2023-06-01T17:37:11;24.90;1.00
5930;DHT22;2990;48.746;9.236;2023-06-01T17:39:38;24.90;1.00
5930;DHT22;2990;48.746;9.236;2023-06-01T17:42:33;24.90;1.00
5930;DHT22;2990;48.746;9.236;2023-06-01T17:44:59;24.70;5.30
5930;DHT22;2990;48.746;9.236;2023-06-01T17:48:11;24.70;1.00
5930;DHT22;2990;48.746;9.236;2023-06-01T17:50:37;24.70;1.00
5930;DHT22;2990;48.746;9.236;2023-06-01T17:53:15;24.60;1.00
5930;DHT22;2990;48.746;9.236;2023-06-01T17:55:51;24.50;1.00
5930;DHT22;2990;48.746;9.236;2023-06-01T18:05:01;24.40;1.00
5930;DHT22;2990;48.746;9.236;2023-06-01T18:10:03;24.30;1.00
5930;DHT22;2990;48.746;9.236;2023-06-01T18:12:43;24.20;1.00
5930;DHT22;2990;48.746;9.236;2023-06-01T18:15:41;24.30;1.00
5930;DHT22;2990;48.746;9.236;2023-06-01T18:18:07;24.10;1.00
5930;DHT22;2990;48.746;9.236;2023-06-01T18:20:44;24.20;1.00
5930;DHT22;2990;48.746;9.236;2023-06-01T18:23:10;23.90;1.00
5930;DHT22;2990;48.746;9.236;2023-06-01T18:25:53;23.90;1.00
5930;DHT22;2990;48.746;9.236;2023-06-01T18:28:29;23.80;1.00
5930;DHT22;2990;48.746;9.236;2023-06-01T18:30:55;23.80;1.00
5930;DHT22;2990;48.746;9.236;2023-06-01T18:33:29;23.80;1.00
5930;DHT22;2990;48.746;9.236;2023-06-01T18:35:58;23.60;1.00
5930;DHT22;2990;48.746;9.236;2023-06-01T18:38:24;23.80;1.00
5930;DHT22;2990;48.746;9.236;2023-06-01T18:41:15;23.50;1.00
5930;DHT22;2990;48.746;9.236;2023-06-01T18:43:41;23.40;1.00
5930;DHT22;2990;48.746;9.236;2023-06-01T18:46:09;23.30;1.00
5930;DHT22;2990;48.746;9.236;2023-06-01T18:48:40;23.40;1.00
5930;DHT22;2990;48.746;9.236;2023-06-01T18:51:06;23.40;1.00
5930;DHT22;2990;48.746;9.236;2023-06-01T18:53:52;23.30;1.00
5930;DHT22;2990;48.746;9.236;2023-06-01T18:59:32;23.20;1.00